Time;durP1;ratioP1;P1;durP2;ratioP2;P2;SDS_P1;SDS_P2;PMS_P1;PMS_P2;Temp;Humidity;BMP_temperature;BMP_pressure;BME280_temperature;BME280_humidity;BME280_pressure;Samples;Min_cycle;Max_cycle;Signal;HPM_P1;HPM_P2
2023/06/24 07:57:16;;;;;;;13.57;12.15;;;;;;;;;;10511254;28;20025;-88
2023/06/24 08:02:57;;;;;;;13.15;11.85;;;;;;;;;;10408639;28;20045;-89
2023/06/24 08:30:50;;;;;;;13.20;11.60;;;;;;;;;;10504878;28;20024;-91
2023/06/24 08:59:00;;;;;;;14.63;11.13;;;;;;;;;;10317338;28;20093;-91
2023/06/24 09:04:38;;;;;;;9.82;7.97;;;;;;;;;;10295579;28;20039;-89
2023/06/24 09:15:20;;;;;;;8.60;7.40;;;;;;;;;;10470359;28;20044;-87
2023/06/24 09:20:24;;;;;;;9.82;8.05;;;;;;;;;;10487033;28;20040;-87
2023/06/24 09:25:27;;;;;;;7.25;5.85;;;;;;;;;;10488661;28;20041;-88
2023/06/24 09:31:07;;;;;;;5.85;4.72;;;;;;;;;;10482943;28;20113;-88
2023/06/24 09:36:29;;;;;;;8.68;5.95;;;;;;;;;;10479256;28;20043;-88
2023/06/24 09:41:42;;;;;;;7.55;5.45;;;;;;;;;;10483888;28;20074;-88
2023/06/24 09:46:47;;;;;;;11.77;6.03;;;;;;;;;;10483939;28;20025;-87
2023/06/24 09:52:09;;;;;;;8.30;5.72;;;;;;;;;;10482792;28;20032;-87
2023/06/24 09:57:11;;;;;;;5.25;4.75;;;;;;;;;;10502560;28;20095;-86
2023/06/24 10:02:19;;;;;;;6.63;5.30;;;;;;;;;;10502086;28;20035;-86
2023/06/24 10:07:51;;;;;;;5.05;4.55;;;;;;;;;;10501690;28;20032;-86
2023/06/24 10:19:10;;;;;;;5.45;4.20;;;;;;;;;;10512930;28;20045;-87
2023/06/24 10:35:29;;;;;;;7.38;4.57;;;;;;;;;;10512473;28;20032;-89
2023/06/24 10:40:40;;;;;;;5.43;4.70;;;;;;;;;;10512099;28;20028;-87
2023/06/24 10:45:49;;;;;;;5.57;3.80;;;;;;;;;;10491113;28;20029;-88
2023/06/24 10:50:51;;;;;;;7.63;6.82;;;;;;;;;;10509020;28;20032;-88
2023/06/24 10:55:52;;;;;;;4.97;4.13;;;;;;;;;;10510809;28;20054;-88
2023/06/24 11:00:55;;;;;;;5.00;4.25;;;;;;;;;;10514631;28;20035;-89
2023/06/24 11:05:56;;;;;;;6.45;4.50;;;;;;;;;;10490409;28;20056;-89
2023/06/24 11:10:58;;;;;;;4.75;3.83;;;;;;;;;;10489584;28;20028;-88
2023/06/24 11:16:00;;;;;;;5.22;4.45;;;;;;;;;;10489240;28;20025;-87
2023/06/24 11:21:02;;;;;;;3.72;3.10;;;;;;;;;;10507403;28;20032;-87
2023/06/24 11:26:06;;;;;;;5.30;4.00;;;;;;;;;;10499380;28;20111;-87
2023/06/24 11:31:10;;;;;;;5.88;3.83;;;;;;;;;;10489459;28;20048;-88
2023/06/24 11:36:11;;;;;;;5.30;3.92;;;;;;;;;;10488695;28;20025;-87
2023/06/24 11:41:12;;;;;;;4.50;3.30;;;;;;;;;;10490143;28;20032;-89
2023/06/24 11:46:26;;;;;;;4.43;3.50;;;;;;;;;;10489557;28;20021;-88
2023/06/24 11:51:31;;;;;;;6.00;3.40;;;;;;;;;;10495113;28;20127;-89
2023/06/24 11:56:36;;;;;;;4.00;3.15;;;;;;;;;;10495504;28;20029;-86
2023/06/24 12:01:37;;;;;;;5.50;3.10;;;;;;;;;;10503779;28;20028;-87
2023/06/24 12:06:38;;;;;;;4.88;3.60;;;;;;;;;;10493685;28;20020;-86
2023/06/24 12:11:41;;;;;;;4.00;3.22;;;;;;;;;;10439825;23;20493;-89
2023/06/24 12:16:42;;;;;;;4.63;3.33;;;;;;;;;;10370830;28;20496;-88
2023/06/24 12:21:44;;;;;;;3.30;2.75;;;;;;;;;;10346171;28;20184;-87
2023/06/24 12:26:46;;;;;;;4.25;2.85;;;;;;;;;;10348735;28;20034;-88
2023/06/24 12:31:47;;;;;;;4.88;4.38;;;;;;;;;;10348846;28;20022;-87
2023/06/24 12:36:48;;;;;;;4.95;3.05;;;;;;;;;;10373322;28;20034;-86
2023/06/24 12:41:49;;;;;;;8.73;3.08;;;;;;;;;;10344345;28;20026;-86
2023/06/24 12:46:50;;;;;;;3.13;2.83;;;;;;;;;;10346500;28;20031;-86
2023/06/24 12:51:52;;;;;;;5.53;2.75;;;;;;;;;;10345194;28;20018;-86
2023/06/24 12:56:53;;;;;;;4.40;3.17;;;;;;;;;;10363236;28;20031;-86
2023/06/24 13:01:54;;;;;;;3.53;2.80;;;;;;;;;;10347994;28;20324;-86
2023/06/24 13:06:55;;;;;;;5.22;3.60;;;;;;;;;;10361413;28;20054;-86
2023/06/24 13:11:56;;;;;;;3.72;3.15;;;;;;;;;;10343560;28;20126;-87
2023/06/24 13:16:57;;;;;;;4.40;3.40;;;;;;;;;;10346331;28;20462;-87
2023/06/24 13:21:59;;;;;;;5.30;2.92;;;;;;;;;;10337298;28;20030;-86
2023/06/24 13:27:00;;;;;;;4.88;3.15;;;;;;;;;;10338364;28;20113;-87
2023/06/24 13:32:01;;;;;;;4.53;2.90;;;;;;;;;;10342894;28;20069;-87
2023/06/24 13:37:07;;;;;;;4.43;2.72;;;;;;;;;;10328258;28;20030;-87
2023/06/24 13:42:08;;;;;;;4.70;3.17;;;;;;;;;;10330820;28;20030;-87
2023/06/24 13:47:10;;;;;;;4.20;3.20;;;;;;;;;;10333597;28;20061;-87
2023/06/24 13:52:11;;;;;;;8.25;3.15;;;;;;;;;;10327171;28;20125;-87
2023/06/24 13:57:12;;;;;;;3.78;3.40;;;;;;;;;;10327225;28;20399;-87
2023/06/24 14:02:13;;;;;;;4.57;3.97;;;;;;;;;;10326034;28;20467;-87
2023/06/24 14:07:14;;;;;;;3.85;3.45;;;;;;;;;;10329125;28;20129;-87
2023/06/24 14:12:15;;;;;;;4.72;3.50;;;;;;;;;;10335283;28;20129;-87
2023/06/24 14:17:16;;;;;;;7.75;3.40;;;;;;;;;;10334024;28;20106;-87
2023/06/24 14:22:17;;;;;;;5.63;3.00;;;;;;;;;;10333687;28;20050;-87
2023/06/24 14:27:18;;;;;;;3.70;2.88;;;;;;;;;;10338438;28;20515;-87
2023/06/24 14:32:19;;;;;;;4.75;3.58;;;;;;;;;;10347776;28;20042;-87
2023/06/24 14:37:23;;;;;;;5.65;3.45;;;;;;;;;;10344902;28;20046;-87
2023/06/24 14:42:24;;;;;;;4.25;3.10;;;;;;;;;;10360795;28;20053;-87
2023/06/24 14:47:26;;;;;;;4.72;3.47;;;;;;;;;;10366870;28;20030;-87
2023/06/24 14:52:27;;;;;;;3.55;3.20;;;;;;;;;;10341835;28;20516;-88
2023/06/24 14:57:28;;;;;;;6.97;6.28;;;;;;;;;;10345099;28;20486;-87
2023/06/24 15:02:29;;;;;;;4.75;3.70;;;;;;;;;;10357448;28;20077;-87
2023/06/24 15:07:30;;;;;;;6.07;3.10;;;;;;;;;;10346143;28;20062;-87
2023/06/24 15:12:31;;;;;;;5.22;3.78;;;;;;;;;;10339039;28;20041;-87
2023/06/24 15:17:34;;;;;;;4.70;3.03;;;;;;;;;;10339430;28;20051;-88
2023/06/24 15:22:35;;;;;;;5.35;3.38;;;;;;;;;;10336835;28;20026;-88
2023/06/24 15:27:37;;;;;;;4.88;3.60;;;;;;;;;;10334269;28;20486;-87
2023/06/24 15:32:38;;;;;;;4.32;3.20;;;;;;;;;;10337714;28;20030;-87
2023/06/24 15:37:39;;;;;;;4.28;3.33;;;;;;;;;;10352481;28;20026;-87
2023/06/24 15:42:46;;;;;;;4.40;3.25;;;;;;;;;;10352110;28;20077;-87
2023/06/24 15:47:47;;;;;;;4.18;3.00;;;;;;;;;;10337325;28;20489;-88
2023/06/24 15:52:48;;;;;;;3.40;2.83;;;;;;;;;;10335173;28;20132;-87
2023/06/24 15:57:49;;;;;;;3.53;3.00;;;;;;;;;;10331853;28;20502;-88
2023/06/24 16:02:50;;;;;;;3.80;3.30;;;;;;;;;;10330811;28;20098;-87
2023/06/24 16:07:51;;;;;;;6.22;5.38;;;;;;;;;;10329066;28;20033;-88
2023/06/24 16:12:54;;;;;;;4.22;3.10;;;;;;;;;;10330190;28;20125;-88
2023/06/24 16:17:55;;;;;;;6.60;3.60;;;;;;;;;;10345178;28;20054;-88
2023/06/24 16:22:56;;;;;;;4.38;3.20;;;;;;;;;;10330577;28;20462;-88
2023/06/24 16:27:57;;;;;;;4.35;3.10;;;;;;;;;;10346482;28;20026;-88
2023/06/24 16:32:58;;;;;;;4.45;3.03;;;;;;;;;;10325758;28;20034;-87
2023/06/24 16:38:04;;;;;;;3.42;2.88;;;;;;;;;;10325642;28;20028;-87
2023/06/24 16:43:08;;;;;;;4.20;2.90;;;;;;;;;;10329861;28;20026;-87
2023/06/24 16:48:09;;;;;;;3.75;3.05;;;;;;;;;;10334565;28;20120;-87
2023/06/24 16:53:10;;;;;;;4.00;3.50;;;;;;;;;;10337175;28;20030;-87
2023/06/24 16:58:11;;;;;;;3.22;2.90;;;;;;;;;;10337210;28;20399;-88
2023/06/24 17:03:12;;;;;;;5.07;3.03;;;;;;;;;;10336794;28;20387;-88
2023/06/24 17:08:13;;;;;;;3.25;2.95;;;;;;;;;;10348637;28;20082;-88
2023/06/24 17:13:14;;;;;;;3.22;2.70;;;;;;;;;;10326407;28;20038;-88
2023/06/24 17:18:15;;;;;;;3.85;2.95;;;;;;;;;;10326643;28;20029;-87
2023/06/24 17:23:16;;;;;;;3.90;2.70;;;;;;;;;;10323338;28;20022;-88
2023/06/24 17:28:17;;;;;;;3.20;2.90;;;;;;;;;;10328864;28;20133;-88
2023/06/24 17:33:18;;;;;;;4.93;3.05;;;;;;;;;;10327968;28;20437;-87
2023/06/24 17:38:20;;;;;;;4.65;3.00;;;;;;;;;;10330744;28;20049;-86
2023/06/24 17:43:21;;;;;;;4.13;2.67;;;;;;;;;;10328463;28;20035;-87
2023/06/24 17:48:22;;;;;;;4.07;3.30;;;;;;;;;;10325663;28;20070;-85
2023/06/24 17:53:23;;;;;;;3.00;2.70;;;;;;;;;;10325927;28;20037;-87
2023/06/24 17:58:24;;;;;;;3.33;2.47;;;;;;;;;;10334643;28;20383;-87
2023/06/24 18:03:25;;;;;;;4.45;2.72;;;;;;;;;;10325083;28;20030;-86
2023/06/24 18:08:26;;;;;;;5.85;2.55;;;;;;;;;;10323533;28;20027;-87
2023/06/24 18:19:27;;;;;;;4.57;2.80;;;;;;;;;;10469330;28;20040;-85
2023/06/24 18:24:54;;;;;;;4.28;3.67;;;;;;;;;;10453109;28;20044;-85
